Terminal Aerodrome Forecast
Issued by NWS

Home | Current Version | Previous Version | Text Only | Print | Product List | Glossary On
Versions: 1 2 3 4 5 6 7 8 9 10 11 12 13
000
FTUS44 KBMX 281140
TAFEET
TAF
KEET 281140Z 2812/2912 00000KT 6SM BR SKC
     FM281500 12008KT P6SM SCT040
     FM290100 00000KT P6SM SCT250=

USA.gov is the U.S. government's official web portal to all federal, state and local government web resources and services.